Time;durP1;ratioP1;P1;durP2;ratioP2;P2;SDS_P1;SDS_P2;PMS_P1;PMS_P2;Temp;Humidity;BMP_temperature;BMP_pressure;BME280_temperature;BME280_humidity;BME280_pressure;Samples;Min_cycle;Max_cycle;Signal;HPM_P1;HPM_P2
2024/02/07 00:01:06;;;;;;;8.32;4.20;;;7.90;99.90;;;;;;5049953;28;20049;-48
2024/02/07 00:03:33;;;;;;;8.82;3.70;;;7.90;99.90;;;;;;5043690;28;20116;-49
2024/02/07 00:06:00;;;;;;;9.10;4.10;;;7.90;99.90;;;;;;5043140;28;20063;-52
2024/02/07 00:08:27;;;;;;;13.52;4.13;;;7.90;99.90;;;;;;5045835;28;20449;-52
2024/02/07 00:10:54;;;;;;;6.50;3.80;;;7.90;99.90;;;;;;5049082;28;20146;-46
2024/02/07 00:13:21;;;;;;;8.18;4.20;;;8.00;99.90;;;;;;5046631;28;20485;-52
2024/02/07 00:15:48;;;;;;;9.95;3.90;;;7.90;99.90;;;;;;5043356;28;20037;-47
2024/02/07 00:18:15;;;;;;;7.40;4.03;;;7.90;99.90;;;;;;5048599;28;20279;-49
2024/02/07 00:20:42;;;;;;;8.10;3.75;;;7.90;99.90;;;;;;5046331;28;20040;-53
2024/02/07 00:23:09;;;;;;;6.63;3.50;;;7.90;99.90;;;;;;5047417;28;20049;-52
2024/02/07 00:25:36;;;;;;;7.22;4.22;;;7.90;99.90;;;;;;5047869;28;20033;-56
2024/02/07 00:28:03;;;;;;;11.70;4.72;;;7.90;99.90;;;;;;5047405;28;20781;-50
2024/02/07 00:30:30;;;;;;;7.47;3.90;;;7.90;99.90;;;;;;5026489;28;20034;-50
2024/02/07 00:33:06;;;;;;;7.97;4.13;;;7.90;99.90;;;;;;5045444;28;20057;-54
2024/02/07 00:35:33;;;;;;;8.55;3.88;;;7.90;99.90;;;;;;5047607;28;20508;-50
2024/02/07 00:38:00;;;;;;;8.07;3.75;;;8.00;99.90;;;;;;5045466;28;20041;-49
2024/02/07 00:40:27;;;;;;;9.32;4.18;;;8.00;99.90;;;;;;5047373;28;20142;-55
2024/02/07 00:42:54;;;;;;;9.18;3.40;;;8.00;99.90;;;;;;5047354;28;20044;-50
2024/02/07 00:45:21;;;;;;;13.23;3.80;;;7.90;99.90;;;;;;5046636;28;20053;-48
2024/02/07 00:47:48;;;;;;;7.15;3.65;;;8.00;99.90;;;;;;5049749;28;20041;-52
2024/02/07 00:50:16;;;;;;;7.03;3.35;;;8.00;99.90;;;;;;5051346;28;20124;-54
2024/02/07 00:52:43;;;;;;;8.38;3.90;;;7.90;99.90;;;;;;5042048;28;20043;-52
2024/02/07 00:55:11;;;;;;;10.13;3.80;;;7.90;99.90;;;;;;5043712;28;20061;-48
2024/02/07 00:57:38;;;;;;;7.45;3.72;;;7.90;99.90;;;;;;5045964;28;20048;-54
2024/02/07 01:00:06;;;;;;;6.68;3.63;;;7.80;99.90;;;;;;5044005;28;20122;-49
2024/02/07 01:02:33;;;;;;;9.55;3.88;;;7.80;99.90;;;;;;5029110;28;20049;-50
2024/02/07 01:05:00;;;;;;;14.38;3.83;;;7.80;99.90;;;;;;5042350;28;20132;-48
2024/02/07 01:07:27;;;;;;;12.82;4.07;;;7.80;99.90;;;;;;5043586;28;20376;-49
2024/02/07 01:09:54;;;;;;;7.80;3.55;;;7.80;99.90;;;;;;5047034;28;20068;-49
2024/02/07 01:12:21;;;;;;;6.70;3.70;;;7.80;99.90;;;;;;5028424;28;20040;-50
2024/02/07 01:14:48;;;;;;;9.85;3.85;;;7.80;99.90;;;;;;5045857;28;20498;-48
2024/02/07 01:17:15;;;;;;;7.38;3.70;;;7.80;99.90;;;;;;5046323;28;20112;-51
2024/02/07 01:19:42;;;;;;;5.88;3.72;;;7.80;99.90;;;;;;5046281;28;20032;-50
2024/02/07 01:22:09;;;;;;;7.97;3.38;;;7.80;99.90;;;;;;5043689;28;20510;-52
2024/02/07 01:24:36;;;;;;;7.07;3.38;;;7.80;99.90;;;;;;5043782;28;20052;-50
2024/02/07 01:27:04;;;;;;;11.00;3.40;;;7.80;99.90;;;;;;5043001;28;20121;-49
2024/02/07 01:29:34;;;;;;;7.97;3.45;;;7.90;99.90;;;;;;5046159;28;20562;-51
2024/02/07 01:32:00;;;;;;;12.25;3.67;;;7.80;99.90;;;;;;5046652;28;20068;-47
2024/02/07 01:34:27;;;;;;;7.18;3.67;;;7.80;99.90;;;;;;5046517;28;20049;-48
2024/02/07 01:36:54;;;;;;;7.93;3.50;;;7.80;99.90;;;;;;5043779;28;20114;-47
2024/02/07 01:39:23;;;;;;;7.25;3.50;;;7.80;99.90;;;;;;5044456;28;20037;-52
2024/02/07 01:41:59;;;;;;;7.18;3.30;;;7.80;99.90;;;;;;5045897;28;20048;-53
2024/02/07 01:44:29;;;;;;;8.65;3.60;;;7.80;99.90;;;;;;5045883;28;20494;-51
2024/02/07 01:47:12;;;;;;;8.93;3.92;;;7.70;99.90;;;;;;5046122;28;20433;-54
2024/02/07 01:49:48;;;;;;;8.52;4.13;;;7.80;99.90;;;;;;5045504;28;20095;-49
2024/02/07 01:52:24;;;;;;;8.43;3.50;;;7.80;99.90;;;;;;5043510;28;20041;-51
2024/02/07 01:54:53;;;;;;;7.45;4.50;;;7.80;99.90;;;;;;5046981;28;20135;-50
2024/02/07 01:57:20;;;;;;;8.07;4.20;;;7.80;99.90;;;;;;5041429;28;20045;-54
2024/02/07 01:59:49;;;;;;;7.68;3.40;;;7.90;99.90;;;;;;5039385;28;20950;-55
2024/02/07 02:02:17;;;;;;;8.45;3.83;;;7.80;99.90;;;;;;5039955;28;20346;-51
2024/02/07 02:04:45;;;;;;;11.30;4.13;;;7.80;99.90;;;;;;5043442;28;20040;-51
2024/02/07 02:07:13;;;;;;;8.63;3.75;;;7.80;99.90;;;;;;5041652;28;20406;-50
2024/02/07 02:09:40;;;;;;;6.65;3.25;;;7.80;99.90;;;;;;5039427;28;20033;-49
2024/02/07 02:12:08;;;;;;;7.40;3.80;;;7.80;99.90;;;;;;5045975;28;20049;-50
2024/02/07 02:14:35;;;;;;;9.45;3.70;;;7.80;99.90;;;;;;5044196;28;20214;-48
2024/02/07 02:17:02;;;;;;;10.32;3.75;;;7.80;99.90;;;;;;5045678;28;20561;-52
2024/02/07 02:19:29;;;;;;;8.88;3.58;;;7.80;99.90;;;;;;5040493;28;20080;-51
2024/02/07 02:22:15;;;;;;;5.90;3.17;;;7.80;99.90;;;;;;5037358;28;20056;-45
2024/02/07 02:25:00;;;;;;;9.00;4.03;;;7.90;99.90;;;;;;5040555;28;20549;-50
2024/02/07 02:27:45;;;;;;;10.02;3.78;;;7.90;99.90;;;;;;5037243;28;20133;-57
2024/02/07 02:30:19;;;;;;;7.35;3.50;;;7.90;99.90;;;;;;5038761;28;20470;-48
2024/02/07 02:32:49;;;;;;;8.75;3.58;;;7.90;99.90;;;;;;5037429;28;20099;-45
2024/02/07 02:35:17;;;;;;;7.63;3.60;;;7.90;99.90;;;;;;5043947;28;20087;-46
2024/02/07 02:37:45;;;;;;;8.48;3.58;;;7.90;99.90;;;;;;5037441;28;20048;-48
2024/02/07 02:40:13;;;;;;;5.75;3.53;;;7.80;99.90;;;;;;5038640;28;20052;-47
2024/02/07 02:42:40;;;;;;;7.32;3.03;;;7.80;99.90;;;;;;5037007;28;20451;-53
2024/02/07 02:45:07;;;;;;;7.22;3.42;;;7.80;99.90;;;;;;5041684;28;20053;-52
2024/02/07 02:47:34;;;;;;;5.82;3.40;;;7.80;99.90;;;;;;5025825;28;20120;-48
2024/02/07 02:50:01;;;;;;;8.05;3.75;;;7.80;99.90;;;;;;5043590;28;20037;-46
2024/02/07 02:52:29;;;;;;;6.68;3.60;;;7.80;99.90;;;;;;5041802;28;20104;-50
2024/02/07 02:54:56;;;;;;;6.97;3.55;;;7.80;99.90;;;;;;5039708;28;20072;-51
2024/02/07 02:57:23;;;;;;;9.13;3.63;;;7.80;99.90;;;;;;5040741;28;20403;-46
2024/02/07 02:59:50;;;;;;;7.22;3.72;;;7.80;99.90;;;;;;5040913;28;20437;-49
2024/02/07 03:02:20;;;;;;;9.13;3.50;;;7.90;99.90;;;;;;5040502;28;20113;-49
2024/02/07 03:04:49;;;;;;;7.47;3.80;;;8.00;99.90;;;;;;5019990;28;20100;-48
2024/02/07 03:10:04;;;;;;;8.00;3.55;;;8.00;99.90;;;;;;5035350;28;20049;-50
2024/02/07 03:12:32;;;;;;;7.35;3.22;;;8.00;99.90;;;;;;5037700;28;20485;-47
2024/02/07 03:14:59;;;;;;;9.55;3.75;;;8.00;99.90;;;;;;5038731;28;20051;-51
2024/02/07 03:17:26;;;;;;;10.32;3.47;;;8.00;99.90;;;;;;5036328;28;20056;-47
2024/02/07 03:19:53;;;;;;;7.25;3.35;;;8.00;99.90;;;;;;5038118;28;20406;-53
2024/02/07 03:22:20;;;;;;;5.78;3.03;;;8.00;99.90;;;;;;5035362;28;20107;-51
2024/02/07 03:24:47;;;;;;;6.88;2.80;;;8.00;99.90;;;;;;5037170;28;20052;-51
2024/02/07 03:27:14;;;;;;;6.53;3.40;;;8.10;99.90;;;;;;5040054;28;20090;-51
2024/02/07 03:29:41;;;;;;;7.38;3.40;;;8.10;99.90;;;;;;5039664;28;20124;-51
2024/02/07 03:32:08;;;;;;;7.53;3.45;;;8.10;99.90;;;;;;5047492;28;20037;-51
2024/02/07 03:34:36;;;;;;;6.40;3.10;;;8.10;99.90;;;;;;5041220;28;20030;-49
2024/02/07 03:37:05;;;;;;;6.85;3.20;;;8.10;99.90;;;;;;5042143;28;20140;-50
2024/02/07 03:39:32;;;;;;;8.38;3.70;;;8.10;99.90;;;;;;5041605;28;20065;-50
2024/02/07 03:42:00;;;;;;;6.80;3.20;;;8.10;99.90;;;;;;5043042;28;20489;-46
2024/02/07 03:44:27;;;;;;;4.97;2.80;;;8.10;99.90;;;;;;5040566;28;20411;-53
2024/02/07 03:46:54;;;;;;;6.28;3.30;;;8.10;99.90;;;;;;5042267;28;20048;-49
2024/02/07 03:49:21;;;;;;;6.22;3.05;;;8.20;99.90;;;;;;5041158;28;20538;-50
2024/02/07 03:51:49;;;;;;;6.25;2.90;;;8.10;99.90;;;;;;5043064;28;20468;-53
2024/02/07 03:54:15;;;;;;;7.57;3.60;;;8.20;99.90;;;;;;5042773;28;20068;-51
2024/02/07 03:56:42;;;;;;;6.47;3.30;;;8.20;99.90;;;;;;5043595;28;20069;-44
2024/02/07 03:59:09;;;;;;;6.07;3.20;;;8.30;99.90;;;;;;5046009;28;20139;-51
2024/02/07 04:01:36;;;;;;;5.75;3.08;;;8.30;99.90;;;;;;5041568;28;20049;-52
2024/02/07 04:04:08;;;;;;;8.25;3.28;;;8.40;99.90;;;;;;5043841;28;20498;-55
2024/02/07 04:06:36;;;;;;;7.38;3.58;;;8.50;99.90;;;;;;5038079;28;20103;-51
2024/02/07 04:09:05;;;;;;;6.88;3.47;;;8.50;99.90;;;;;;5044131;28;20570;-49
2024/02/07 05:17:08;;;;;;;6.50;3.50;;;8.60;99.90;;;;;;5040274;28;20108;-52
2024/02/07 05:19:35;;;;;;;5.38;3.00;;;8.60;99.90;;;;;;5044017;28;20065;-47
2024/02/07 05:22:03;;;;;;;7.95;3.70;;;8.60;99.90;;;;;;5036721;28;20041;-47
2024/02/07 05:24:31;;;;;;;8.75;3.92;;;8.60;99.90;;;;;;5039300;28;20049;-53
2024/02/07 05:26:58;;;;;;;8.43;3.70;;;8.50;99.90;;;;;;5042250;28;20350;-45
2024/02/07 05:29:26;;;;;;;7.53;3.50;;;8.60;99.90;;;;;;5042048;28;20084;-48
2024/02/07 05:31:53;;;;;;;7.38;3.83;;;8.60;99.90;;;;;;5039346;28;20033;-54
2024/02/07 05:34:23;;;;;;;6.70;3.45;;;8.50;99.90;;;;;;5043979;28;20513;-53
2024/02/07 05:36:50;;;;;;;7.35;3.60;;;8.60;99.90;;;;;;5041302;28;20477;-55
2024/02/07 05:39:18;;;;;;;7.28;3.45;;;8.60;99.90;;;;;;5041960;28;20049;-47
2024/02/07 05:41:45;;;;;;;8.15;3.45;;;8.60;99.90;;;;;;5046720;28;20453;-52
2024/02/07 05:44:13;;;;;;;8.00;3.28;;;8.60;99.90;;;;;;5042267;28;20052;-54
2024/02/07 05:46:40;;;;;;;7.07;3.40;;;8.60;99.90;;;;;;5042183;28;20037;-51
2024/02/07 05:49:07;;;;;;;5.22;3.17;;;8.70;99.90;;;;;;5042320;28;20040;-51
2024/02/07 05:51:34;;;;;;;10.82;3.78;;;8.60;99.90;;;;;;5019394;28;20057;-51
2024/02/07 05:54:01;;;;;;;5.47;3.70;;;8.60;99.90;;;;;;5036266;28;20045;-50
2024/02/07 05:56:28;;;;;;;5.78;3.55;;;8.70;99.90;;;;;;5041362;28;20482;-48
2024/02/07 05:58:55;;;;;;;6.18;3.63;;;8.70;99.90;;;;;;5046369;28;20083;-55
2024/02/07 06:01:22;;;;;;;8.48;3.72;;;8.70;99.90;;;;;;5045545;28;20143;-49
2024/02/07 06:03:50;;;;;;;4.97;3.30;;;8.70;99.90;;;;;;5046248;28;20457;-48
2024/02/07 06:06:18;;;;;;;8.18;3.65;;;8.70;99.90;;;;;;5041278;28;20471;-48
2024/02/07 06:08:47;;;;;;;7.25;4.10;;;8.70;99.90;;;;;;5045443;28;20058;-55
2024/02/07 06:11:15;;;;;;;6.85;3.75;;;8.70;99.90;;;;;;5046656;28;20072;-46
2024/02/07 06:13:42;;;;;;;11.15;4.28;;;8.70;99.90;;;;;;5046305;28;20041;-46
2024/02/07 06:16:09;;;;;;;8.45;3.78;;;8.80;99.90;;;;;;5044084;28;20064;-50
2024/02/07 06:18:36;;;;;;;7.00;3.60;;;8.80;99.90;;;;;;5037390;28;20330;-53
2024/02/07 06:21:04;;;;;;;11.07;4.00;;;8.80;99.90;;;;;;5047106;28;20055;-48
2024/02/07 06:23:31;;;;;;;6.03;3.78;;;8.80;99.90;;;;;;5046158;28;20059;-49
2024/02/07 06:25:57;;;;;;;9.25;3.78;;;8.80;99.90;;;;;;5046707;28;20067;-52
2024/02/07 06:28:24;;;;;;;9.23;4.00;;;8.80;99.90;;;;;;5046551;28;20136;-49
2024/02/07 06:30:51;;;;;;;7.63;3.92;;;8.90;99.90;;;;;;5047303;28;20037;-49
2024/02/07 06:33:18;;;;;;;6.93;3.40;;;8.80;99.90;;;;;;5046154;28;20572;-53
2024/02/07 06:35:45;;;;;;;8.23;3.53;;;8.80;99.90;;;;;;5046237;28;20087;-51
2024/02/07 06:38:12;;;;;;;5.97;3.75;;;8.80;99.90;;;;;;5044630;28;20065;-48
2024/02/07 06:40:39;;;;;;;11.48;4.68;;;8.80;99.90;;;;;;5047090;28;20048;-50
2024/02/07 06:43:06;;;;;;;8.15;3.60;;;8.80;99.90;;;;;;5047911;28;20310;-53
2024/02/07 06:45:33;;;;;;;10.35;4.43;;;8.80;99.90;;;;;;5045732;28;20045;-47
2024/02/07 06:48:00;;;;;;;8.82;3.67;;;8.80;99.90;;;;;;5047234;28;20068;-45
2024/02/07 06:50:28;;;;;;;6.40;3.80;;;8.80;99.90;;;;;;5046750;28;20406;-51
2024/02/07 06:52:55;;;;;;;9.00;3.53;;;8.90;99.90;;;;;;5044878;28;20057;-52
2024/02/07 06:55:23;;;;;;;8.30;3.90;;;8.90;99.90;;;;;;5042609;28;20089;-55
2024/02/07 06:57:50;;;;;;;5.78;3.60;;;8.80;99.90;;;;;;5044953;28;20033;-51
2024/02/07 07:00:17;;;;;;;8.90;3.67;;;8.90;99.90;;;;;;5045442;28;20389;-51
2024/02/07 07:02:44;;;;;;;6.25;3.25;;;8.90;99.90;;;;;;5044480;28;20419;-46
2024/02/07 07:05:12;;;;;;;10.77;4.63;;;8.80;99.90;;;;;;5044114;28;20412;-50
2024/02/07 07:07:38;;;;;;;9.93;3.92;;;8.90;99.90;;;;;;5045338;28;20413;-52
2024/02/07 07:10:06;;;;;;;8.63;4.10;;;8.90;99.90;;;;;;5046104;28;20410;-48
2024/02/07 07:12:33;;;;;;;9.05;4.30;;;8.90;99.90;;;;;;5044118;28;20037;-42
2024/02/07 07:15:00;;;;;;;10.52;3.65;;;9.00;99.90;;;;;;5043951;28;20080;-50
2024/02/07 07:17:27;;;;;;;7.97;4.30;;;8.90;99.90;;;;;;5046444;28;20059;-49
2024/02/07 07:19:54;;;;;;;7.63;4.20;;;9.00;99.90;;;;;;5046432;28;20051;-49
2024/02/07 07:22:21;;;;;;;9.43;3.80;;;8.90;99.90;;;;;;5043607;28;20067;-49
2024/02/07 07:24:48;;;;;;;9.02;4.15;;;9.00;99.90;;;;;;5047267;28;20056;-49
2024/02/07 07:27:15;;;;;;;6.43;3.72;;;9.00;99.90;;;;;;5047249;28;20142;-51
2024/02/07 07:29:42;;;;;;;9.43;4.05;;;9.00;99.90;;;;;;5047607;28;20088;-52
2024/02/07 07:32:09;;;;;;;5.22;3.33;;;9.00;99.90;;;;;;5049416;28;20045;-51
2024/02/07 07:34:36;;;;;;;5.25;3.35;;;9.00;99.90;;;;;;5047460;28;20045;-52
2024/02/07 07:37:03;;;;;;;8.18;3.33;;;8.90;99.90;;;;;;5050222;28;20143;-48
2024/02/07 07:39:30;;;;;;;8.73;4.03;;;8.90;99.90;;;;;;5045874;28;20127;-52
2024/02/07 07:41:57;;;;;;;8.00;3.63;;;8.90;99.90;;;;;;5048940;28;20053;-53
2024/02/07 07:44:24;;;;;;;5.85;3.42;;;8.80;99.90;;;;;;5046245;28;20053;-51
2024/02/07 07:46:51;;;;;;;8.02;3.55;;;8.80;99.90;;;;;;5045699;28;20087;-50
2024/02/07 07:49:18;;;;;;;8.02;3.45;;;8.80;99.90;;;;;;5047869;28;20048;-53
2024/02/07 07:51:45;;;;;;;10.48;3.30;;;8.80;99.90;;;;;;5043314;28;20103;-50
2024/02/07 07:54:14;;;;;;;6.65;2.95;;;8.80;99.90;;;;;;5044872;28;20401;-50
2024/02/07 07:56:41;;;;;;;7.68;3.33;;;8.70;99.90;;;;;;5047820;28;20052;-52
2024/02/07 07:59:08;;;;;;;7.45;3.33;;;8.70;99.90;;;;;;5046210;28;20124;-46
2024/02/07 08:01:35;;;;;;;5.97;3.47;;;8.70;99.90;;;;;;5045563;28;20041;-48
2024/02/07 08:04:02;;;;;;;9.43;3.92;;;8.70;99.90;;;;;;5046953;28;20140;-51
2024/02/07 08:06:29;;;;;;;5.90;3.30;;;8.70;99.90;;;;;;5044615;28;20045;-51
2024/02/07 08:08:56;;;;;;;7.75;3.78;;;8.70;99.90;;;;;;5046302;28;20033;-49
2024/02/07 08:11:23;;;;;;;6.60;3.28;;;8.80;99.90;;;;;;5045211;28;20128;-53
2024/02/07 08:13:50;;;;;;;7.20;3.42;;;8.80;99.90;;;;;;5047589;28;20044;-48
2024/02/07 08:16:17;;;;;;;10.15;4.03;;;8.80;99.90;;;;;;5047324;28;20049;-48
2024/02/07 08:18:45;;;;;;;6.65;3.05;;;8.80;99.90;;;;;;5026366;28;20100;-49
2024/02/07 08:21:12;;;;;;;7.28;3.58;;;8.80;99.90;;;;;;5048115;28;20103;-53
2024/02/07 08:23:39;;;;;;;6.20;3.50;;;8.80;99.90;;;;;;5044307;28;20053;-52
2024/02/07 08:26:09;;;;;;;8.07;3.60;;;8.80;99.90;;;;;;5034223;28;20064;-52
2024/02/07 08:28:36;;;;;;;6.65;3.42;;;8.80;99.90;;;;;;5042030;28;20041;-47
2024/02/07 08:31:03;;;;;;;6.22;3.80;;;8.70;99.90;;;;;;5039479;28;20049;-50
2024/02/07 08:33:29;;;;;;;6.50;3.67;;;8.70;99.90;;;;;;5042023;28;20045;-55
2024/02/07 08:35:57;;;;;;;9.00;3.42;;;8.70;99.90;;;;;;5044009;28;20123;-49
2024/02/07 08:38:24;;;;;;;7.13;3.60;;;8.70;99.90;;;;;;5038285;28;20194;-50
2024/02/07 08:40:54;;;;;;;9.27;3.70;;;8.70;99.90;;;;;;5040800;28;20037;-47
2024/02/07 08:43:22;;;;;;;6.47;3.67;;;8.70;99.90;;;;;;5040683;28;20041;-48
2024/02/07 08:45:49;;;;;;;7.32;3.40;;;8.70;99.90;;;;;;5045272;28;20132;-50
2024/02/07 08:48:16;;;;;;;7.70;3.47;;;8.70;99.90;;;;;;5036643;28;20073;-52
2024/02/07 08:50:43;;;;;;;8.00;3.58;;;8.70;99.90;;;;;;5040074;28;20833;-48
2024/02/07 08:53:11;;;;;;;8.48;3.60;;;8.70;99.90;;;;;;5038090;28;20061;-55
2024/02/07 08:55:38;;;;;;;5.72;3.33;;;8.70;99.90;;;;;;5035047;28;20346;-51
2024/02/07 08:58:05;;;;;;;7.03;3.70;;;8.80;99.90;;;;;;5041518;28;20045;-47
2024/02/07 09:00:34;;;;;;;9.10;3.78;;;8.90;99.90;;;;;;5041206;28;20127;-54
2024/02/07 09:03:00;;;;;;;7.40;3.50;;;8.90;99.90;;;;;;5044058;28;20136;-54
2024/02/07 09:05:27;;;;;;;10.55;3.42;;;9.00;99.90;;;;;;5035127;28;20059;-49
2024/02/07 09:07:54;;;;;;;9.55;3.50;;;9.00;99.90;;;;;;5040022;28;20045;-50
2024/02/07 09:10:23;;;;;;;11.02;3.75;;;9.00;99.90;;;;;;5041245;28;20037;-50
2024/02/07 09:12:50;;;;;;;7.53;3.47;;;9.00;99.90;;;;;;5040268;28;20506;-52
2024/02/07 09:15:16;;;;;;;8.18;3.67;;;9.00;99.90;;;;;;5039013;28;20052;-49
2024/02/07 09:17:43;;;;;;;8.95;3.70;;;9.00;99.90;;;;;;5040209;28;20045;-50
2024/02/07 09:20:12;;;;;;;9.20;3.63;;;8.90;99.90;;;;;;5039574;28;20052;-49
2024/02/07 09:22:41;;;;;;;10.38;3.70;;;8.90;99.90;;;;;;5039393;28;20443;-50
2024/02/07 09:25:08;;;;;;;8.93;3.67;;;8.80;99.90;;;;;;5040650;28;20117;-46
2024/02/07 09:27:35;;;;;;;5.70;3.25;;;8.90;99.90;;;;;;5038426;28;20140;-47
2024/02/07 09:30:02;;;;;;;7.95;4.72;;;8.90;99.90;;;;;;5039020;28;20045;-47
2024/02/07 09:32:42;;;;;;;9.07;3.47;;;8.90;99.90;;;;;;5040709;28;20476;-47
2024/02/07 09:35:09;;;;;;;9.23;4.00;;;8.90;99.90;;;;;;5041789;28;20041;-44
2024/02/07 09:37:38;;;;;;;8.10;3.90;;;8.90;99.90;;;;;;5039562;28;20068;-50
2024/02/07 09:40:06;;;;;;;6.82;3.70;;;9.00;99.90;;;;;;5043254;28;20052;-48
2024/02/07 09:42:37;;;;;;;7.05;3.47;;;9.10;99.90;;;;;;5039066;28;20053;-57
2024/02/07 09:45:08;;;;;;;7.45;3.72;;;9.10;99.90;;;;;;5046481;28;20422;-52
2024/02/07 09:47:55;;;;;;;11.40;3.70;;;9.20;99.90;;;;;;5040712;28;20108;-51
2024/02/07 09:50:23;;;;;;;5.90;3.78;;;9.30;99.90;;;;;;5040681;28;20045;-50
2024/02/07 09:52:52;;;;;;;8.63;3.55;;;9.30;99.90;;;;;;5040545;28;20474;-51
2024/02/07 09:55:19;;;;;;;6.78;3.72;;;9.30;99.90;;;;;;5045110;28;20047;-49
2024/02/07 09:57:48;;;;;;;7.18;3.40;;;9.30;99.90;;;;;;5028166;28;20502;-50
2024/02/07 10:00:15;;;;;;;7.32;3.63;;;9.30;99.90;;;;;;5043054;28;20442;-49
2024/02/07 10:02:48;;;;;;;9.63;3.85;;;9.40;99.90;;;;;;5043283;28;20068;-55
2024/02/07 10:05:21;;;;;;;10.35;5.20;;;9.30;99.90;;;;;;5042026;28;20140;-51
2024/02/07 10:07:51;;;;;;;7.35;3.55;;;9.40;99.90;;;;;;5040717;28;20041;-49
2024/02/07 10:10:19;;;;;;;7.80;3.65;;;9.40;99.90;;;;;;5041107;28;20060;-55
2024/02/07 10:12:47;;;;;;;9.75;4.18;;;9.50;99.90;;;;;;5041089;28;20087;-50
2024/02/07 10:15:14;;;;;;;10.30;3.60;;;9.60;99.90;;;;;;5040572;28;20051;-50
2024/02/07 10:17:41;;;;;;;6.65;3.90;;;9.60;99.90;;;;;;5041168;28;20073;-51
2024/02/07 10:20:12;;;;;;;9.63;3.50;;;9.50;99.90;;;;;;5042405;28;20628;-52
2024/02/07 10:22:42;;;;;;;5.75;3.42;;;9.60;99.90;;;;;;5040897;28;20091;-55
2024/02/07 10:25:14;;;;;;;9.60;4.10;;;9.60;99.90;;;;;;5040665;28;20072;-53
2024/02/07 10:27:42;;;;;;;8.65;3.95;;;9.50;99.90;;;;;;5043577;28;20053;-52
2024/02/07 10:30:11;;;;;;;8.68;3.70;;;9.50;99.90;;;;;;5039814;28;20037;-54
2024/02/07 10:32:38;;;;;;;5.65;3.67;;;9.50;99.90;;;;;;5040134;28;20042;-46
2024/02/07 10:35:10;;;;;;;8.95;3.67;;;9.40;99.90;;;;;;5041368;28;20506;-55
2024/02/07 10:37:38;;;;;;;;;;;9.40;99.90;;;;;;5038551;28;20053;-55
2024/02/07 10:40:06;;;;;;;6.70;3.58;;;9.30;99.90;;;;;;5040521;28;20574;-49
2024/02/07 10:42:33;;;;;;;8.93;3.75;;;9.40;99.90;;;;;;5037991;28;20082;-52
2024/02/07 10:45:07;;;;;;;8.30;4.00;;;9.40;99.90;;;;;;5043654;28;20506;-46
2024/02/07 10:47:35;;;;;;;7.95;3.47;;;9.40;99.90;;;;;;5043935;28;20526;-49
2024/02/07 10:50:05;;;;;;;8.15;3.38;;;9.40;99.90;;;;;;5045287;28;20055;-48
2024/02/07 10:52:32;;;;;;;6.43;3.70;;;9.50;99.90;;;;;;5042723;28;20056;-50
2024/02/07 10:55:06;;;;;;;7.32;3.60;;;9.50;99.90;;;;;;5043763;28;20497;-50
2024/02/07 10:57:38;;;;;;;8.95;3.58;;;9.60;99.90;;;;;;5042065;28;20037;-51
2024/02/07 11:00:06;;;;;;;7.30;3.40;;;9.60;99.90;;;;;;5027664;28;20052;-50
2024/02/07 11:02:33;;;;;;;6.07;3.05;;;9.70;99.90;;;;;;5041912;28;20044;-52
2024/02/07 11:05:01;;;;;;;9.13;4.00;;;9.70;99.90;;;;;;5045867;28;20057;-49
2024/02/07 11:07:29;;;;;;;10.43;3.90;;;9.80;99.90;;;;;;5048342;28;20322;-48
2024/02/07 11:09:57;;;;;;;7.60;4.05;;;9.70;99.90;;;;;;5045168;28;20118;-52
2024/02/07 11:12:24;;;;;;;7.97;4.10;;;9.80;99.90;;;;;;5028548;28;20041;-51
2024/02/07 11:14:53;;;;;;;6.75;3.58;;;9.60;99.90;;;;;;5044222;28;20045;-49
2024/02/07 11:17:20;;;;;;;5.82;3.60;;;9.60;99.90;;;;;;5044345;28;20072;-49
2024/02/07 11:19:48;;;;;;;9.70;3.83;;;9.60;99.90;;;;;;5046929;28;20205;-45
2024/02/07 11:22:25;;;;;;;5.82;3.30;;;9.70;99.90;;;;;;5048557;28;20084;-52
2024/02/07 11:24:55;;;;;;;6.97;3.40;;;9.70;99.90;;;;;;5050051;28;20093;-49
2024/02/07 11:27:22;;;;;;;6.93;4.03;;;9.80;99.90;;;;;;5042594;28;20399;-51
2024/02/07 11:29:49;;;;;;;6.78;3.60;;;9.80;99.90;;;;;;5044081;28;20073;-49
2024/02/07 11:32:17;;;;;;;9.65;4.20;;;9.90;99.90;;;;;;5044320;28;20096;-46
2024/02/07 11:34:52;;;;;;;7.55;3.50;;;9.80;99.90;;;;;;5047242;28;20064;-46
2024/02/07 11:37:21;;;;;;;8.93;4.03;;;9.80;99.90;;;;;;5042805;28;20057;-49
2024/02/07 11:39:49;;;;;;;12.02;4.20;;;9.70;99.90;;;;;;5042485;28;20056;-49
2024/02/07 11:42:20;;;;;;;8.50;3.85;;;9.70;99.90;;;;;;5043122;28;20425;-45
2024/02/07 11:44:52;;;;;;;9.30;3.95;;;9.60;99.90;;;;;;5041791;28;20037;-54
2024/02/07 11:47:27;;;;;;;7.95;4.00;;;9.70;99.90;;;;;;5041571;28;20115;-47
2024/02/07 11:49:56;;;;;;;9.70;4.15;;;9.60;99.90;;;;;;5044103;28;20052;-48
2024/02/07 11:52:28;;;;;;;5.63;3.50;;;9.50;99.90;;;;;;5046038;28;20113;-47
2024/02/07 11:55:09;;;;;;;8.00;3.40;;;9.50;99.90;;;;;;5045234;28;20037;-44
2024/02/07 11:57:40;;;;;;;7.30;3.65;;;9.50;99.90;;;;;;5041604;28;20109;-50
2024/02/07 12:00:08;;;;;;;8.07;3.90;;;9.50;99.90;;;;;;5045161;28;20783;-45
2024/02/07 12:02:35;;;;;;;7.18;3.60;;;9.50;99.90;;;;;;5042979;28;20096;-49
2024/02/07 12:05:03;;;;;;;7.90;3.75;;;9.40;99.90;;;;;;5040823;28;20116;-46
2024/02/07 12:07:31;;;;;;;9.85;4.15;;;9.50;99.90;;;;;;5046233;28;20456;-48
2024/02/07 12:09:59;;;;;;;8.43;3.45;;;9.50;99.90;;;;;;5046876;28;20049;-49
2024/02/07 12:12:26;;;;;;;7.35;4.10;;;9.50;99.90;;;;;;5046166;28;20044;-48
2024/02/07 12:14:53;;;;;;;8.18;3.58;;;9.40;99.90;;;;;;5045409;28;20053;-53
2024/02/07 12:17:20;;;;;;;5.90;3.70;;;9.30;99.90;;;;;;5042700;28;20399;-46
2024/02/07 12:19:47;;;;;;;7.13;3.30;;;9.30;99.90;;;;;;5042746;28;20052;-44
2024/02/07 12:22:18;;;;;;;7.57;3.58;;;9.40;99.90;;;;;;5045545;28;20377;-49
2024/02/07 12:24:46;;;;;;;10.52;3.67;;;9.30;99.90;;;;;;5047916;28;20064;-44
2024/02/07 12:27:14;;;;;;;5.93;3.63;;;9.30;99.90;;;;;;5044906;28;20073;-47
2024/02/07 12:29:56;;;;;;;11.73;3.90;;;9.20;99.90;;;;;;5044354;28;20124;-46
2024/02/07 12:32:24;;;;;;;6.97;3.40;;;9.20;99.90;;;;;;5041529;28;20406;-43
2024/02/07 12:34:52;;;;;;;6.53;3.20;;;9.30;99.90;;;;;;5043706;28;20454;-43
2024/02/07 12:37:21;;;;;;;7.88;3.60;;;9.30;99.90;;;;;;5045204;28;20078;-47
2024/02/07 12:39:50;;;;;;;7.22;2.88;;;9.20;99.90;;;;;;5042420;28;20107;-41
2024/02/07 12:42:20;;;;;;;5.55;2.83;;;9.30;99.90;;;;;;5043013;28;20060;-47
2024/02/07 12:44:50;;;;;;;8.77;3.50;;;9.30;99.90;;;;;;5044830;28;20038;-48
2024/02/07 12:47:20;;;;;;;8.10;3.50;;;9.30;99.90;;;;;;5041751;28;20045;-47
2024/02/07 12:49:49;;;;;;;5.60;2.90;;;9.30;99.90;;;;;;5043496;28;20259;-43
2024/02/07 12:52:17;;;;;;;6.45;3.35;;;9.30;99.90;;;;;;5045935;28;20045;-53
2024/02/07 12:54:46;;;;;;;8.50;3.10;;;9.20;99.90;;;;;;5039214;28;20060;-42
2024/02/07 12:57:24;;;;;;;5.00;2.53;;;9.20;99.90;;;;;;5044727;28;20136;-45
2024/02/07 12:59:53;;;;;;;6.63;2.80;;;9.30;99.90;;;;;;5044008;28;20049;-45
2024/02/07 13:02:20;;;;;;;6.85;3.22;;;9.30;99.90;;;;;;5046258;28;20076;-48
2024/02/07 13:04:47;;;;;;;6.75;2.80;;;9.40;99.90;;;;;;5045072;28;20057;-51
2024/02/07 13:07:15;;;;;;;5.88;3.15;;;9.50;99.90;;;;;;5044062;28;20053;-51
2024/02/07 13:09:43;;;;;;;5.90;2.95;;;9.40;99.90;;;;;;5043741;28;20172;-44
2024/02/07 13:12:12;;;;;;;4.45;2.67;;;9.60;99.90;;;;;;5043803;28;20091;-51
2024/02/07 13:14:53;;;;;;;6.53;2.95;;;9.70;99.90;;;;;;5045249;28;20045;-49
2024/02/07 13:17:20;;;;;;;4.38;2.45;;;9.70;99.90;;;;;;5041439;28;20460;-46
2024/02/07 13:19:47;;;;;;;6.57;3.05;;;9.80;99.90;;;;;;5041307;28;20471;-51
2024/02/07 13:22:15;;;;;;;5.80;2.60;;;9.80;99.90;;;;;;5041751;28;20049;-49
2024/02/07 13:24:42;;;;;;;5.43;2.60;;;9.90;99.90;;;;;;5039801;28;20041;-51
2024/02/07 13:27:09;;;;;;;4.78;2.30;;;9.80;99.90;;;;;;5037870;28;20049;-43
2024/02/07 13:29:39;;;;;;;5.78;2.83;;;9.70;99.90;;;;;;5039784;28;20041;-42
2024/02/07 13:32:15;;;;;;;6.10;2.83;;;9.70;99.90;;;;;;5103475;27;20337;-41
2024/02/07 13:34:42;;;;;;;5.15;2.60;;;9.70;99.90;;;;;;5084085;28;20464;-44
2024/02/07 13:37:09;;;;;;;5.45;2.80;;;9.70;99.90;;;;;;5077448;28;20396;-47
2024/02/07 13:39:36;;;;;;;4.45;2.33;;;9.60;99.90;;;;;;5064658;28;20076;-50
2024/02/07 13:42:04;;;;;;;3.80;2.20;;;9.50;99.90;;;;;;5069420;28;20601;-45
2024/02/07 13:44:32;;;;;;;5.43;3.03;;;9.50;99.90;;;;;;5063239;28;20041;-48
2024/02/07 13:47:01;;;;;;;5.43;2.40;;;9.50;99.90;;;;;;5066455;28;20044;-46
2024/02/07 13:49:28;;;;;;;5.70;2.30;;;9.50;99.90;;;;;;5062391;28;20049;-46
2024/02/07 13:51:56;;;;;;;4.65;2.22;;;9.40;99.90;;;;;;5062594;28;20418;-47
2024/02/07 13:54:23;;;;;;;4.43;2.40;;;9.50;99.90;;;;;;5065277;28;20136;-48
2024/02/07 13:56:50;;;;;;;3.83;2.30;;;9.50;99.90;;;;;;5065105;28;20337;-43
2024/02/07 13:59:17;;;;;;;3.90;2.35;;;9.50;99.90;;;;;;5068389;28;20080;-50
2024/02/07 14:01:44;;;;;;;4.35;2.22;;;9.50;99.90;;;;;;5067125;28;20131;-42
2024/02/07 14:04:11;;;;;;;4.05;2.30;;;9.50;99.90;;;;;;5069278;28;20182;-49
2024/02/07 14:06:38;;;;;;;9.82;4.72;;;9.50;99.90;;;;;;5065231;28;20044;-52
2024/02/07 14:09:05;;;;;;;4.35;2.60;;;9.40;99.90;;;;;;5064092;28;20297;-44